Tiempo atmosférico en la estación meteorológica de Tinajo, Las Palmas (275 m.)



Fecha
DESCASC
Temp. máxima en grados centígrados (hora)
DESCASC
Temp. mínima en grados centígrados (hora)
DESCASC
Temp. media en grados centígrados
DESCASC
Racha de viento máxima en m/sg (hora)
DESCASC
Velocidad máxima media en intervalos de 10 minutos(hora)
DESCASC
Precipitaciones diarias en mm
DESCASC
Precipitaciones de 00:00 a 06:00 en mm
DESCASC
Precipitaciones de 06:00 a 12:00 en mm
DESCASC
Precipitaciones de 12:00 a 18:00 en mm
DESCASC
Precipitaciones de 18:00 a 24:00 en mm
DESCASC
06-07-2020 26.8 (14:40) 19.2 (00:30) 23 14.17 (00:40) 8.61 (00:30) 0 0 0 0 0
05-07-2020 23.9 (14:40) 18.3 (03:30) 21.1 12.5 (14:50) 8.33 (01:20) 0 0 0 0 0
04-07-2020 21.7 (14:10) 17.9 (05:50) 19.8 16.94 (05:10) 10.28 (05:50) 0 0 0 0 0
03-07-2020 22 (14:50) 18.6 (23:30) 20.3 17.22 (13:30) 11.39 (12:00) 0 0 0 0 0
02-07-2020 22.1 (16:10) 18.8 (00:00) 20.4 18.06 (21:50) 10.83 (21:50) 0 0 0 0 0
01-07-2020 22.6 (15:40) 18.3 (00:00) 20.4 12.78 (21:50) 8.33 (17:50) 0 0 0 0 0
30-06-2020 21.7 (14:30) 18.5 (00:00) 20.1 13.33 (02:00) 8.33 (14:30) 0 0 0 0 0
29-06-2020 22.4 (15:20) 18.4 (00:00) 20.4 15.83 (09:40) 9.72 (15:30) 0 0 0 0 0
28-06-2020 22.9 (15:40) 18.8 (00:00) 20.8 17.22 (15:00) 10.83 (15:30) 0 0 0 0 0
27-06-2020 22.4 (14:30) 17.9 (00:00) 20.1 17.5 (11:10) 10.28 (18:30) 0 0 0 0 0
26-06-2020 23.2 (14:00) 18.6 (00:00) 20.9 19.44 (19:30) 10.56 (13:30) 0 0 0 0 0
25-06-2020 21.7 (16:00) 18.6 (00:00) 20.2 15.28 (22:10) 9.17 (15:00) 0 0 0 0 0
24-06-2020 22.7 (16:30) 18.7 (00:00) 20.7 13.89 (12:40) 8.61 (10:20) 0 0 0 0 0
23-06-2020 -- (--) -- (--) -- -- (--) -- (--) -- 0 0 0 --
22-06-2020 22.5 (14:50) 18.3 (00:00) 20.4 11.94 (19:40) 8.33 (19:10) 0 0 0 0 0
21-06-2020 23.1 (13:50) 18.3 (00:00) 20.7 16.11 (09:20) 10 (09:20) 0 0 0 0 0
20-06-2020 22.7 (14:00) 18.3 (00:00) 20.5 15.28 (17:50) 8.89 (17:50) 0 0 0 0 0
19-06-2020 23 (14:30) 18.7 (00:00) 20.9 15.28 (13:10) 10.56 (16:40) 0 0 0 0 0
18-06-2020 23.8 (15:10) 18.1 (00:00) 20.9 11.39 (17:40) 6.94 (23:59) 0.8 0 0.8 0 0
17-06-2020 25.1 (14:40) 19.1 (00:00) 22.1 8.61 (14:50) 5.83 (14:50) 0 0 0 0 0
16-06-2020 27.3 (13:00) 18.8 (00:00) 23 8.89 (17:50) 6.11 (17:00) 0 0 0 0 0
15-06-2020 28.9 (15:40) 19 (00:00) 23.9 13.61 (04:50) 9.17 (04:50) 0 0 0 0 0
14-06-2020 24.9 (14:00) 16.3 (00:00) 20.6 11.94 (21:40) 6.67 (20:20) 0 0 0 0 0
13-06-2020 23 (15:10) 14.9 (00:00) 18.9 8.61 (16:10) 5.83 (15:50) 0 0 0 0 0
12-06-2020 23.2 (14:50) 17.1 (00:00) 20.2 9.72 (20:00) 6.39 (19:30) 0 0 0 0 0
11-06-2020 22.1 (15:00) 17.3 (00:00) 19.7 9.72 (00:50) 5.83 (13:40) 0 0 0 0 0
10-06-2020 22.1 (14:10) 17.1 (00:00) 19.6 11.94 (13:40) 7.78 (13:50) 0 0 0 0 0
09-06-2020 23.3 (14:00) 18.1 (00:00) 20.7 13.33 (13:10) 8.33 (16:30) 0 0 0 0 0

Gráficas

Temp. máximas Temp. mínimas Temp. medias Precipitaciones Rachas de viento máximas Velocidades máximas media en intervalos de 10 minutos

Datos horarios

Fecha y hora oficial Temperatura (ºC) Velocidad del viento (km/h) Dirección del viento Racha (km/h) Dirección de racha Precipitación (mm) Presión (hPa) Tendencia (hPa) Humedad (%)
2020-07-08 23:00:00 19.4 35 Norte 46 Nordeste 0 -- -- 93
2020-07-08 22:00:00 19.7 30 Norte 41 Norte 0 -- -- 92
2020-07-08 21:00:00 20.1 28 Norte 43 Norte 0 -- -- 91
2020-07-08 20:00:00 21 30 Norte 41 Nordeste 0 -- -- 87
2020-07-08 19:00:00 22.4 30 Norte 46 Nordeste 0 -- -- 80
2020-07-08 18:00:00 23.5 33 Norte 44 Nordeste 0 -- -- 74
2020-07-08 17:00:00 24.9 31 Norte 49 Norte 0 -- -- 65
2020-07-08 16:00:00 23.9 24 Nordeste 40 Nordeste 0 -- -- 59
2020-07-08 15:00:00 23 28 Norte 41 Nordeste 0 -- -- 76
2020-07-08 14:00:00 23.9 25 Norte 37 Norte 0 -- -- 74
2020-07-08 13:00:00 23.7 23 Norte 35 Nordeste 0 -- -- 75
2020-07-08 12:00:00 23.3 19 Norte 32 Norte 0 -- -- 77
2020-07-08 11:00:00 22.1 17 Norte 27 Noroeste 0 -- -- 84
2020-07-08 10:00:00 20.8 18 Norte 26 Nordeste 0 -- -- 91
2020-07-08 09:00:00 20.1 15 Norte 27 Norte 0 -- -- 94
2020-07-08 08:00:00 19.7 18 Norte 28 Norte 0 -- -- 96
2020-07-08 07:00:00 19.9 15 Norte 35 Norte 0 -- -- 96
2020-07-08 06:00:00 20 23 Norte 41 Norte 0 -- -- 94
2020-07-08 05:00:00 20.1 24 Norte 47 Nordeste 0 -- -- 91
2020-07-08 04:00:00 24.4 37 Nordeste 59 Nordeste 0 -- -- 52
2020-07-08 03:00:00 21.4 22 Nordeste 34 Nordeste 0 -- -- 82
2020-07-08 02:00:00 20.1 9 Norte 23 Norte 0 -- -- 95
2020-07-08 01:00:00 20.3 15 Norte 27 Norte 0 -- -- 95
2020-07-08 00:00:00 20.5 18 Norte 25 Norte 0 -- -- 94
2020-07-07 23:00:00 20.7 19 Norte 25 Norte 0 -- -- 93
2020-07-07 22:00:00 21 19 Norte 24 Norte 0 -- -- 92
2020-07-07 21:00:00 21.3 16 Norte 23 Norte 0 -- -- 91
2020-07-07 20:00:00 21.9 17 Norte 26 Norte 0 -- -- 88
2020-07-07 19:00:00 23 15 Norte 24 Norte 0 -- -- 83
2020-07-07 18:00:00 24.4 17 Norte 22 Norte 0 -- -- 76
2020-07-07 17:00:00 26.3 13 Norte 23 Nordeste 0 -- -- 68
2020-07-07 16:00:00 27.2 13 Norte 23 Norte 0 -- -- 65
2020-07-07 15:00:00 26.4 12 Norte 18 Norte 0 -- -- 67
2020-07-07 14:00:00 27 9 Norte 19 Norte 0 -- -- 64
2020-07-07 13:00:00 25.8 9 Norte 16 Noroeste 0 -- -- 68
2020-07-07 12:00:00 23.6 10 Noroeste 17 Oeste 0 -- -- 85
2020-07-07 11:00:00 21.3 9 Noroeste 15 Noroeste 0 -- -- 97
2020-07-07 10:00:00 20.6 9 Noroeste 13 Noroeste 0 -- -- 97
2020-07-07 09:00:00 20.5 6 Noroeste 9 Norte 0 -- -- 97
2020-07-07 08:00:00 20 2 Sudoeste 12 Norte 0 -- -- 97
2020-07-07 07:00:00 20 5 Norte 14 Norte 0 -- -- 97
2020-07-07 06:00:00 20.1 4 Nordeste 15 Norte 0 -- -- 97
2020-07-07 05:00:00 20.2 9 Norte 14 Norte 0 -- -- 96
2020-07-07 04:00:00 20.3 8 Noroeste 14 Noroeste 0 -- -- 96
2020-07-07 03:00:00 20.4 5 Noroeste 8 Noroeste 0 -- -- 96
2020-07-07 02:00:00 20.4 4 Norte 11 Noroeste 0 -- -- 95
2020-07-07 01:00:00 20.4 3 Este 10 Este 0 -- -- 95
2020-07-07 00:00:00 20.6 3 Este 13 Este 0 -- -- 94
2020-07-06 23:00:00 20.8 4 Norte 15 Este 0 -- -- 93
2020-07-06 22:00:00 21 10 Nordeste 21 Nordeste 0 -- -- 92
2020-07-06 21:00:00 21.6 10 Norte 15 Norte 0 -- -- 88
2020-07-06 20:00:00 23.1 9 Nordeste 18 Este 0 -- -- 82
2020-07-06 19:00:00 23.3 13 Nordeste 23 Norte 0 -- -- 81
2020-07-06 18:00:00 24.4 17 Norte 27 Este 0 -- -- 76
2020-07-06 17:00:00 25.2 18 Norte 27 Norte 0 -- -- 73
2020-07-06 16:00:00 25.2 18 Norte 29 Norte 0 -- -- 73
2020-07-06 15:00:00 26.1 17 Norte 32 Nordeste 0 -- -- 69
2020-07-06 14:00:00 26 18 Nordeste 27 Norte 0 -- -- 69
2020-07-06 13:00:00 25.5 18 Nordeste 35 Este 0 -- -- 72
2020-07-06 12:00:00 24.2 18 Nordeste 31 Nordeste 0 -- -- 76
2020-07-06 11:00:00 22.7 22 Nordeste 34 Nordeste 0 -- -- 81
2020-07-06 10:00:00 21.5 20 Nordeste 33 Nordeste 0 -- -- 86
2020-07-06 09:00:00 19.9 15 Norte 26 Norte 0 -- -- 95
2020-07-06 08:00:00 19.7 13 Norte 26 Norte 0 -- -- 96
2020-07-06 07:00:00 19.5 13 Norte 28 Nordeste 0 -- -- 96
2020-07-06 06:00:00 19.5 9 Norte 25 Norte 0 -- -- 95
2020-07-06 05:00:00 19.4 14 Norte 24 Norte 0 -- -- 94
2020-07-06 04:00:00 19.5 7 Noroeste 40 Nordeste 0 -- -- 92
2020-07-06 03:00:00 20 18 Nordeste 37 Nordeste 0 -- -- 88
2020-07-06 02:00:00 20 26 Nordeste 41 Nordeste 0 -- -- 87
2020-07-06 01:00:00 19.5 29 Nordeste 51 Norte 0 -- -- 90
2020-07-06 00:00:00 19.3 25 Nordeste 44 Nordeste 0 -- -- 96
2020-07-05 23:00:00 19.6 25 Nordeste 39 Norte 0 -- -- 95
2020-07-05 22:00:00 19.9 22 Norte 39 Norte 0 -- -- 94
2020-07-05 21:00:00 20.1 23 Norte 38 Norte 0 -- -- 92
2020-07-05 20:00:00 20.4 26 Norte 40 Norte 0 -- -- 90
2020-07-05 19:00:00 21 27 Norte 39 Norte 0 -- -- 87
2020-07-05 18:00:00 21.7 26 Norte 38 Norte 0 -- -- 83
2020-07-05 17:00:00 22.6 24 Norte 37 Norte 0 -- -- 79
2020-07-05 16:00:00 23.3 29 Norte 39 Norte 0 -- -- 76
2020-07-05 15:00:00 23 27 Norte 45 Norte 0 -- -- 77
2020-07-05 14:00:00 22.8 24 Norte 37 Norte 0 -- -- 78
2020-07-05 13:00:00 21.8 23 Norte 34 Norte 0 -- -- 81
2020-07-05 12:00:00 20.8 18 Norte 32 Norte 0 -- -- 84
2020-07-05 11:00:00 19.8 23 Norte 34 Norte 0 -- -- 90
2020-07-05 10:00:00 19.7 22 Norte 36 Norte 0 -- -- 89
2020-07-05 09:00:00 18.9 20 Norte 31 Norte 0 -- -- 93
2020-07-05 08:00:00 18.5 20 Norte 32 Norte 0 -- -- 95
2020-07-05 07:00:00 18.3 19 Norte 41 Norte 0 -- -- 94
2020-07-05 06:00:00 18.3 22 Nordeste 35 Nordeste 0 -- -- 94
2020-07-05 05:00:00 18.3 22 Norte 34 Nordeste 0 -- -- 93
2020-07-05 04:00:00 18.4 21 Norte 35 Norte 0 -- -- 92
2020-07-05 03:00:00 18.4 24 Norte 37 Norte 0 -- -- 91
2020-07-05 02:00:00 18.5 26 Norte 41 Norte 0 -- -- 91
2020-07-05 01:00:00 18.5 28 Norte 44 Norte 0 -- -- 90
2020-07-05 00:00:00 18.6 26 Norte 41 Norte 0 -- -- 91
2020-07-04 23:00:00 18.6 29 Norte 39 Norte 0 -- -- 89
2020-07-04 22:00:00 18.7 26 Norte 37 Norte 0 -- -- 89
2020-07-04 21:00:00 18.9 24 Norte 45 Norte 0 -- -- 88
2020-07-04 20:00:00 19.2 28 Norte 44 Norte 0 -- -- 85
2020-07-04 19:00:00 19.8 28 Norte 41 Norte 0 -- -- 82
2020-07-04 18:00:00 20.4 30 Norte 44 Norte 0 -- -- 78
2020-07-04 17:00:00 21.1 31 Norte 46 Nordeste 0 -- -- 74
2020-07-04 16:00:00 21.3 29 Norte 54 Norte 0 -- -- 73
2020-07-04 15:00:00 21 30 Norte 55 Norte 0 -- -- 76
2020-07-04 14:00:00 21.6 37 Norte 54 Nordeste 0 -- -- 71
2020-07-04 13:00:00 20.6 35 Norte 53 Nordeste 0 -- -- 77
2020-07-04 12:00:00 20 30 Norte 46 Norte 0 -- -- 80
2020-07-04 11:00:00 19.5 32 Norte 50 Nordeste 0 -- -- 80
2020-07-04 10:00:00 18.8 33 Nordeste 51 Norte 0 -- -- 84
2020-07-04 09:00:00 18.3 29 Nordeste 53 Norte 0 -- -- 86
2020-07-04 08:00:00 18.1 27 Nordeste 50 Norte 0 -- -- 88
2020-07-04 07:00:00 17.9 29 Nordeste 56 Nordeste 0 -- -- 89
2020-07-04 06:00:00 18 37 Nordeste 61 Nordeste 0 -- -- 88
2020-07-04 05:00:00 18 37 Nordeste 57 Norte 0 -- -- 88
2020-07-04 04:00:00 18.2 32 Nordeste 57 Norte 0 -- -- 88
2020-07-04 03:00:00 18.2 32 Nordeste 56 Norte 0 -- -- 88
2020-07-04 02:00:00 18.3 33 Nordeste 52 Nordeste 0 -- -- 88
2020-07-04 01:00:00 18.4 31 Nordeste 57 Norte 0 -- -- 89
2020-07-04 00:00:00 18.6 33 Nordeste 59 Nordeste 0 -- -- 89
2020-07-03 23:00:00 18.8 31 Nordeste 53 Nordeste 0 -- -- 89
2020-07-03 22:00:00 18.9 32 Norte 48 Norte 0 -- -- 89
2020-07-03 21:00:00 19.1 31 Norte 48 Norte 0 -- -- 88
2020-07-03 20:00:00 19.6 35 Norte 51 Norte 0 -- -- 85
2020-07-03 19:00:00 20.2 35 Norte 51 Norte 0 -- -- 82
2020-07-03 18:00:00 20.9 34 Norte 50 Norte 0 -- -- 80
2020-07-03 17:00:00 21.3 35 Norte 49 Norte 0 -- -- 78
2020-07-03 16:00:00 21.6 34 Nordeste 53 Norte 0 -- -- 76
2020-07-03 15:00:00 21.7 36 Nordeste 59 Norte 0 -- -- 74
2020-07-03 14:00:00 21.7 39 Nordeste 62 Nordeste 0 -- -- 75
2020-07-03 13:00:00 21.7 35 Nordeste 54 Norte 0 -- -- 75
2020-07-03 12:00:00 21 41 Nordeste 58 Nordeste 0 -- -- 79
2020-07-03 11:00:00 20.2 33 Nordeste 56 Norte 0 -- -- 85
2020-07-03 10:00:00 19.8 31 Nordeste 60 Nordeste 0 -- -- 87
2020-07-03 09:00:00 19.2 31 Nordeste 48 Nordeste 0 -- -- 91
2020-07-03 08:00:00 18.9 30 Nordeste 48 Norte 0 -- -- 93
2020-07-03 07:00:00 18.8 30 Nordeste 47 Nordeste 0 -- -- 93
2020-07-03 06:00:00 18.8 29 Nordeste 54 Norte 0 -- -- 93
2020-07-03 05:00:00 18.8 26 Nordeste 44 Nordeste 0 -- -- 93
2020-07-03 04:00:00 18.9 26 Nordeste 44 Norte 0 -- -- 94
2020-07-03 03:00:00 18.8 22 Nordeste 41 Nordeste 0 -- -- 94
2020-07-03 02:00:00 18.8 25 Nordeste 45 Norte 0 -- -- 92
2020-07-03 01:00:00 19 28 Nordeste 44 Norte 0 -- -- 92
2020-07-03 00:00:00 19.1 23 Nordeste 46 Nordeste 0 -- -- 92
2020-07-02 23:00:00 19.2 25 Nordeste 37 Nordeste 0 -- -- 92
2020-07-02 22:00:00 19.2 21 Norte 65 Nordeste 0 -- -- 91
2020-07-02 21:00:00 19.3 33 Nordeste 54 Norte 0 -- -- 88
2020-07-02 20:00:00 19.6 32 Nordeste 57 Nordeste 0 -- -- 87
2020-07-02 19:00:00 20.2 33 Norte 60 Nordeste 0 -- -- 84
2020-07-02 18:00:00 20.6 30 Norte 49 Norte 0 -- -- 84
2020-07-02 17:00:00 20.8 29 Norte 45 Norte 0 -- -- 81
2020-07-02 16:00:00 21.8 31 Norte 58 Nordeste 0 -- -- 77
2020-07-02 15:00:00 21.4 30 Nordeste 54 Nordeste 0 -- -- 78
2020-07-02 14:00:00 21.2 28 Norte 49 Norte 0 -- -- 79
2020-07-02 13:00:00 20.5 27 Nordeste 57 Nordeste 0 -- -- 81
2020-07-02 12:00:00 20.7 28 Nordeste 44 Norte 0 -- -- 80
2020-07-02 11:00:00 20.4 31 Norte 50 Norte 0 -- -- 82
2020-07-02 10:00:00 19.7 29 Nordeste 51 Norte 0 -- -- 86
2020-07-02 09:00:00 19.2 27 Nordeste 48 Norte 0 -- -- 88
2020-07-02 08:00:00 19 23 Nordeste 48 Nordeste 0 -- -- 90
2020-07-02 07:00:00 18.8 22 Norte 35 Nordeste 0 -- -- 91
2020-07-02 06:00:00 18.9 23 Norte 45 Norte 0 -- -- 91
2020-07-02 05:00:00 18.9 27 Norte 45 Norte 0 -- -- 91
2020-07-02 04:00:00 18.9 18 Nordeste 41 Norte 0 -- -- 90
2020-07-02 03:00:00 19 22 Nordeste 37 Norte 0 -- -- 90
2020-07-02 02:00:00 19 19 Nordeste 42 Norte 0 -- -- 90
2020-07-02 01:00:00 19 22 Nordeste 48 Nordeste 0 -- -- 91
2020-07-02 00:00:00 19 21 Nordeste 37 Norte 0 -- -- 90
2020-07-01 23:00:00 19.3 19 Norte 37 Nordeste 0 -- -- 89
2020-07-01 22:00:00 19.4 17 Norte 46 Nordeste 0 -- -- 88
2020-07-01 21:00:00 19.6 22 Nordeste 37 Norte 0 -- -- 86
2020-07-01 20:00:00 20.1 21 Nordeste 36 Norte 0 -- -- 85
2020-07-01 19:00:00 20.6 25 Nordeste 42 Nordeste 0 -- -- 81
2020-07-01 18:00:00 21.7 28 Norte 46 Norte 0 -- -- 76
2020-07-01 17:00:00 21.9 24 Nordeste 36 Nordeste 0 -- -- 76
2020-07-01 16:00:00 22.2 21 Nordeste 38 Norte 0 -- -- 74
2020-07-01 15:00:00 21.7 27 Norte 37 Norte 0 -- -- 76
2020-07-01 14:00:00 21.2 25 Norte 37 Norte 0 -- -- 79
2020-07-01 13:00:00 21 22 Norte 34 Norte 0 -- -- 79
2020-07-01 12:00:00 20.3 23 Norte 32 Norte 0 -- -- 82
2020-07-01 11:00:00 19.7 20 Norte 32 Nordeste 0 -- -- 85
2020-07-01 10:00:00 19.1 20 Norte 28 Norte 0 -- -- 87
2020-07-01 09:00:00 19 17 Norte 26 Norte 0 -- -- 88
2020-07-01 08:00:00 18.5 16 Norte 26 Norte 0 -- -- 89
2020-07-01 07:00:00 18.3 16 Norte 32 Norte 0 -- -- 89
2020-07-01 06:00:00 18.3 14 Nordeste 27 Nordeste 0 -- -- 89
2020-07-01 05:00:00 18.5 16 Nordeste 30 Norte 0 -- -- 90
2020-07-01 04:00:00 18.5 17 Norte 31 Norte 0 -- -- 90
2020-07-01 03:00:00 18.5 17 Norte 34 Nordeste 0 -- -- 89
2020-07-01 02:00:00 18.6 17 Norte 34 Norte 0 -- -- 89
2020-07-01 01:00:00 18.6 19 Nordeste 42 Nordeste 0 -- -- 88
2020-07-01 00:00:00 18.6 24 Nordeste 39 Nordeste 0 -- -- 87
2020-06-30 23:00:00 18.9 24 Nordeste 41 Nordeste 0 -- -- 87
2020-06-30 22:00:00 19.1 19 Norte 36 Norte 0 -- -- 85
2020-06-30 21:00:00 19.2 22 Norte 34 Norte 0 -- -- 84
2020-06-30 20:00:00 19.9 21 Nordeste 37 Norte 0 -- -- 82
2020-06-30 19:00:00 20.3 23 Norte 45 Nordeste 0 -- -- 79
2020-06-30 18:00:00 20.8 24 Norte 38 Norte 0 -- -- 77
2020-06-30 17:00:00 21.4 26 Nordeste 39 Norte 0 -- -- 75
2020-06-30 16:00:00 21.3 24 Norte 37 Norte 0 -- -- 76
2020-06-30 15:00:00 21.4 29 Norte 42 Norte 0 -- -- 76
2020-06-30 14:00:00 21.4 26 Norte 39 Nordeste 0 -- -- 74
2020-06-30 13:00:00 21.6 23 Norte 39 Norte 0 -- -- 72
2020-06-30 12:00:00 20.6 21 Norte 39 Nordeste 0 -- -- 76
2020-06-30 11:00:00 19.9 23 Norte 36 Nordeste 0 -- -- 81
2020-06-30 10:00:00 19.7 23 Norte 37 Norte 0 -- -- 80
2020-06-30 09:00:00 19.2 24 Norte 43 Nordeste 0 -- -- 81
2020-06-30 08:00:00 18.9 21 Norte 35 Norte 0 -- -- 84
2020-06-30 07:00:00 18.9 20 Norte 36 Nordeste 0 -- -- 85
2020-06-30 06:00:00 18.8 22 Nordeste 41 Nordeste 0 -- -- 89
2020-06-30 05:00:00 18.9 22 Nordeste 44 Nordeste 0 -- -- 87
2020-06-30 04:00:00 18.8 18 Norte 40 Norte 0 -- -- 91
2020-06-30 03:00:00 18.9 25 Norte 44 Norte 0 -- -- 89
2020-06-30 02:00:00 18.9 23 Nordeste 48 Norte 0 -- -- 91
2020-06-30 01:00:00 19.2 23 Nordeste 43 Norte 0 -- -- 88
2020-06-30 00:00:00 19.2 24 Nordeste 43 Norte 0 -- -- 89
2020-06-29 23:00:00 19.5 24 Nordeste 46 Nordeste 0 -- -- 86
2020-06-29 22:00:00 19.6 25 Nordeste 40 Nordeste 0 -- -- 85
2020-06-29 21:00:00 19.8 25 Norte 41 Norte 0 -- -- 83
2020-06-29 20:00:00 20.5 27 Norte 44 Norte 0 -- -- 78
2020-06-29 19:00:00 20.6 30 Norte 45 Norte 0 -- -- 80
2020-06-29 18:00:00 21.3 27 Norte 41 Norte 0 -- -- 80
2020-06-29 17:00:00 21.6 30 Norte 44 Norte 0 -- -- 77
2020-06-29 16:00:00 21.7 31 Norte 47 Norte 0 -- -- 76
2020-06-29 15:00:00 21.6 31 Norte 46 Nordeste 0 -- -- 72
2020-06-29 14:00:00 21.4 30 Norte 40 Norte 0 -- -- 78
2020-06-29 13:00:00 21.9 29 Norte 46 Norte 0 -- -- 71
2020-06-29 12:00:00 21.4 31 Nordeste 50 Norte 0 -- -- 73
2020-06-29 11:00:00 20.5 28 Norte 45 Norte 0 -- -- 78
2020-06-29 10:00:00 19.9 27 Nordeste 57 Nordeste 0 -- -- 82
2020-06-29 09:00:00 19 28 Norte 43 Norte 0 -- -- 85
2020-06-29 08:00:00 18.6 25 Nordeste 44 Norte 0 -- -- 92
2020-06-29 07:00:00 18.8 21 Norte 40 Norte 0 -- -- 89
2020-06-29 06:00:00 18.7 23 Norte 47 Norte 0 -- -- 90
2020-06-29 05:00:00 18.4 25 Nordeste 42 Norte 0 -- -- 91
2020-06-29 04:00:00 18.7 26 Nordeste 45 Nordeste 0 -- -- 91
2020-06-29 03:00:00 19.3 23 Norte 36 Norte 0 -- -- 89
2020-06-29 02:00:00 19.1 23 Norte 38 Norte 0 -- -- 87
2020-06-29 01:00:00 19.4 26 Norte 45 Nordeste 0 -- -- 86
2020-06-29 00:00:00 19.5 29 Nordeste 44 Nordeste 0 -- -- 80
2020-06-28 23:00:00 19.6 23 Norte 38 Norte 0 -- -- 85
2020-06-28 22:00:00 19.7 25 Norte 43 Nordeste 0 -- -- 84
2020-06-28 21:00:00 19.6 30 Norte 41 Norte 0 -- -- 82
2020-06-28 20:00:00 20.2 27 Norte 41 Norte 0 -- -- 81
2020-06-28 19:00:00 20.6 30 Norte 50 Nordeste 0 -- -- 80
2020-06-28 18:00:00 20.9 30 Norte 46 Norte 0 -- -- 77
2020-06-28 17:00:00 21.4 32 Norte 50 Nordeste 0 -- -- 78
2020-06-28 16:00:00 21.9 34 Norte 52 Norte 0 -- -- 75
2020-06-28 15:00:00 22.2 35 Nordeste 62 Nordeste 0 -- -- 69
2020-06-28 14:00:00 21.6 34 Norte 53 Nordeste 0 -- -- 75
2020-06-28 13:00:00 21.8 33 Nordeste 55 Norte 0 -- -- 70
2020-06-28 12:00:00 20.3 30 Norte 48 Norte 0 -- -- 81
2020-06-28 11:00:00 20.2 28 Norte 45 Norte 0 -- -- 81
2020-06-28 10:00:00 19.8 26 Norte 49 Nordeste 0 -- -- 80
2020-06-28 09:00:00 19.4 29 Norte 52 Norte 0 -- -- 81
2020-06-28 08:00:00 19.1 26 Nordeste 45 Norte 0 -- -- 83
2020-06-28 07:00:00 18.8 32 Nordeste 56 Norte 0 -- -- 79
2020-06-28 06:00:00 18.9 26 Nordeste 48 Norte 0 -- -- 82
2020-06-28 05:00:00 19.1 23 Norte 41 Nordeste 0 -- -- 84
2020-06-28 04:00:00 18.9 29 Nordeste 47 Norte 0 -- -- 78
2020-06-28 03:00:00 19.1 24 Nordeste 52 Norte 0 -- -- 83
2020-06-28 02:00:00 19.3 30 Nordeste 45 Nordeste 0 -- -- 79
2020-06-28 01:00:00 19.3 27 Nordeste 52 Norte 0 -- -- 79
2020-06-28 00:00:00 19.4 26 Nordeste 46 Norte 0 -- -- 80
2020-06-27 23:00:00 19.4 28 Nordeste 45 Nordeste 0 -- -- 80
2020-06-27 22:00:00 19.5 24 Nordeste 45 Nordeste 0 -- -- 81
2020-06-27 21:00:00 19.6 31 Nordeste 48 Norte 0 -- -- 80
2020-06-27 20:00:00 20.2 30 Norte 54 Nordeste 0 -- -- 78
2020-06-27 19:00:00 20.9 30 Norte 53 Nordeste 0 -- -- 74
2020-06-27 18:00:00 21.2 36 Norte 50 Nordeste 0 -- -- 70
2020-06-27 17:00:00 21.6 35 Norte 59 Nordeste 0 -- -- 68
2020-06-27 16:00:00 21.3 35 Nordeste 58 Nordeste 0 -- -- 68
2020-06-27 15:00:00 22.3 32 Nordeste 51 Norte 0 -- -- 62
2020-06-27 14:00:00 21.9 30 Nordeste 47 Norte 0 -- -- 65
2020-06-27 13:00:00 21.2 31 Nordeste 52 Norte 0 -- -- 66
2020-06-27 12:00:00 20.4 30 Nordeste 63 Nordeste 0 -- -- 70
2020-06-27 11:00:00 20.4 32 Nordeste 54 Nordeste 0 -- -- 68
2020-06-27 10:00:00 19.5 31 Nordeste 54 Nordeste 0 -- -- 71
2020-06-27 09:00:00 18.7 30 Nordeste 53 Nordeste 0 -- -- 75
2020-06-27 08:00:00 18.2 27 Nordeste 49 Nordeste 0 -- -- 76
2020-06-27 07:00:00 18.1 23 Nordeste 45 Norte 0 -- -- 80
2020-06-27 06:00:00 18.1 27 Nordeste 50 Norte 0 -- -- 78
2020-06-27 05:00:00 18 26 Norte 41 Norte 0 -- -- 79
2020-06-27 04:00:00 18 27 Norte 41 Norte 0 -- -- 78
2020-06-27 03:00:00 18.3 28 Norte 52 Nordeste 0 -- -- 80
2020-06-27 02:00:00 18.4 24 Nordeste 41 Norte 0 -- -- 81
2020-06-27 01:00:00 18.4 28 Norte 45 Nordeste 0 -- -- 79
2020-06-27 00:00:00 18.6 27 Norte 43 Norte 0 -- -- 81
2020-06-26 23:00:00 18.6 26 Nordeste 44 Nordeste 0 -- -- 82
2020-06-26 22:00:00 19 28 Nordeste 43 Norte 0 -- -- 84
2020-06-26 21:00:00 19.3 27 Norte 43 Norte 0 -- -- 83
2020-06-26 20:00:00 20.1 29 Norte 70 Norte 0 -- -- 78
2020-06-26 19:00:00 20.5 33 Norte 49 Nordeste 0 -- -- 75
2020-06-26 18:00:00 21.1 30 Norte 50 Norte 0 -- -- 73
2020-06-26 17:00:00 21.6 33 Norte 49 Norte 0 -- -- 71
2020-06-26 16:00:00 22.4 33 Nordeste 55 Nordeste 0 -- -- 66
2020-06-26 15:00:00 23 33 Norte 55 Nordeste 0 -- -- 61
2020-06-26 14:00:00 23.2 35 Norte 56 Norte 0 -- -- 59
2020-06-26 13:00:00 22.6 32 Nordeste 59 Nordeste 0 -- -- 60
2020-06-26 12:00:00 22.4 32 Norte 52 Nordeste 0 -- -- 63
2020-06-26 11:00:00 21 37 Norte 54 Nordeste 0 -- -- 67
2020-06-26 10:00:00 20.3 32 Nordeste 57 Nordeste 0 -- -- 72
2020-06-26 09:00:00 19.4 30 Norte 46 Norte 0 -- -- 75
2020-06-26 08:00:00 18.9 26 Nordeste 43 Norte 0 -- -- 84
2020-06-26 07:00:00 18.8 24 Norte 41 Norte 0 -- -- 84
2020-06-26 06:00:00 18.6 29 Nordeste 51 Norte 0 -- -- 78
2020-06-26 05:00:00 18.7 24 Norte 41 Norte 0 -- -- 79
2020-06-26 04:00:00 18.6 19 Norte 45 Norte 0 -- -- 85
2020-06-26 03:00:00 18.8 22 Nordeste 38 Nordeste 0 -- -- 82
2020-06-26 02:00:00 19.1 20 Nordeste 40 Norte 0 -- -- 81
2020-06-26 01:00:00 19 24 Nordeste 45 Norte 0 -- -- 80
2020-06-26 00:00:00 19 27 Nordeste 43 Nordeste 0 -- -- 79
2020-06-25 23:00:00 18.9 30 Nordeste 55 Nordeste 0 -- -- 80
2020-06-25 22:00:00 19.1 27 Norte 44 Nordeste 0 -- -- 80
2020-06-25 21:00:00 19 26 Norte 47 Nordeste 0 -- -- 79
2020-06-25 20:00:00 20.3 29 Norte 46 Norte 0 -- -- 72
2020-06-25 19:00:00 20.1 31 Nordeste 46 Nordeste 0 -- -- 74
2020-06-25 18:00:00 20.9 32 Nordeste 45 Norte 0 -- -- 70
2020-06-25 17:00:00 21.4 31 Norte 46 Norte 0 -- -- 68
2020-06-25 16:00:00 21.7 27 Norte 46 Norte 0 -- -- 69
2020-06-25 15:00:00 21.6 33 Norte 45 Nordeste 0 -- -- 66
2020-06-25 14:00:00 21.4 31 Norte 45 Norte 0 -- -- 70
2020-06-25 13:00:00 21.3 28 Norte 42 Norte 0 -- -- 67
2020-06-25 12:00:00 21.2 29 Norte 44 Norte 0 -- -- 72
2020-06-25 11:00:00 20.1 23 Norte 41 Norte 0 -- -- 77
2020-06-25 10:00:00 19.8 28 Norte 40 Norte 0 -- -- 74
2020-06-25 09:00:00 18.7 24 Nordeste 41 Nordeste 0 -- -- 83
2020-06-25 08:00:00 18.7 27 Norte 41 Nordeste 0 -- -- 81
2020-06-25 07:00:00 18.7 26 Norte 43 Norte 0 -- -- 83
2020-06-25 06:00:00 18.7 21 Nordeste 41 Nordeste 0 -- -- 79
2020-06-25 05:00:00 18.9 20 Norte 36 Norte 0 -- -- 78
2020-06-25 04:00:00 19 21 Norte 35 Norte 0 -- -- 84
2020-06-25 03:00:00 19.3 25 Norte 42 Nordeste 0 -- -- 78
2020-06-25 02:00:00 19.3 22 Norte 38 Norte 0 -- -- 82
2020-06-25 01:00:00 19.2 22 Norte 41 Norte 0 -- -- 81
2020-06-25 00:00:00 19.1 26 Norte 40 Norte 0 -- -- 81
2020-06-24 23:00:00 19.4 26 Norte 39 Norte 0 -- -- 81
2020-06-24 22:00:00 19.4 23 Norte 37 Norte 0 -- -- 84
2020-06-24 21:00:00 19.8 23 Norte 40 Norte 0 -- -- 84
2020-06-24 20:00:00 20.5 23 Norte 37 Norte 0 -- -- 80
2020-06-24 19:00:00 21.1 27 Norte 40 Norte 0 -- -- 74
2020-06-24 18:00:00 21.4 28 Norte 38 Norte 0 -- -- 70
2020-06-24 17:00:00 22.7 22 Norte 35 Norte 0 -- -- 65
2020-06-24 16:00:00 22.4 22 Norte 39 Norte 0 -- -- 67
2020-06-24 15:00:00 22 24 Norte 38 Norte 0 -- -- 66
2020-06-24 14:00:00 22 22 Norte 43 Norte 0 -- -- 68
2020-06-24 13:00:00 21.8 24 Norte 50 Nordeste 0 -- -- 67
2020-06-24 12:00:00 22.2 25 Nordeste 47 Norte 0 -- -- 64
2020-06-24 11:00:00 20.6 30 Norte 43 Norte 0 -- -- 70
2020-06-24 10:00:00 20.1 28 Norte 42 Norte 0 -- -- 72
2020-06-24 09:00:00 19.5 24 Norte 39 Nordeste 0 -- -- 73
2020-06-24 08:00:00 19.2 24 Norte 37 Nordeste 0 -- -- 76
2020-06-24 07:00:00 18.9 26 Norte 42 Norte 0 -- -- 75
2020-06-24 06:00:00 18.9 25 Norte 37 Norte 0 -- -- 77
2020-06-24 05:00:00 18.9 29 Norte 41 Norte 0 -- -- 79
2020-06-24 04:00:00 18.8 24 Norte 38 Norte 0 -- -- 77
2020-06-24 03:00:00 19 24 Norte 39 Norte 0 -- -- 81
2020-06-24 02:00:00 19 23 Norte 38 Norte 0 -- -- 78
2020-06-24 01:00:00 19.1 21 Norte 39 Nordeste 0 -- -- 78
2020-06-24 00:00:00 19.2 23 Norte 37 Norte 0 -- -- 77
2020-06-23 23:00:00 19.5 24 Norte 34 Nordeste 0 -- -- 80
2020-06-23 22:00:00 19.5 23 Norte 39 Nordeste 0 -- -- 78
2020-06-23 21:00:00 19.6 24 Norte 40 Norte 0 -- -- 77
2020-06-23 20:00:00 19.9 25 Norte 37 Norte 0 -- -- 75
2020-06-23 19:00:00 -- -- -- -- -- -- -- -- --
2020-06-23 18:00:00 20.6 30 Norte 46 Norte 0 -- -- 76
2020-06-23 17:00:00 21 29 Norte 44 Norte 0 -- -- 72
2020-06-23 16:00:00 20.6 29 Norte 45 Norte 0 -- -- 75
2020-06-23 15:00:00 21 29 Norte 40 Norte 0 -- -- 72
2020-06-23 14:00:00 20.8 32 Norte 42 Norte 0 -- -- 74
2020-06-23 13:00:00 20.7 28 Norte 42 Norte 0 -- -- 76
2020-06-23 12:00:00 20.5 29 Norte 44 Norte 0 -- -- 76
2020-06-23 11:00:00 19.8 26 Norte 42 Norte 0 -- -- 77
2020-06-23 10:00:00 19.5 26 Norte 38 Norte 0 -- -- 79
2020-06-23 09:00:00 19.1 26 Norte 37 Nordeste 0 -- -- 81
2020-06-23 08:00:00 18.8 20 Norte 35 Norte 0 -- -- 85
2020-06-23 07:00:00 18.7 22 Norte 34 Norte 0 -- -- 81
2020-06-23 06:00:00 18.7 23 Norte 32 Norte 0 -- -- 81
2020-06-23 05:00:00 18.7 15 Norte 28 Norte 0 -- -- 81
2020-06-23 04:00:00 18.4 18 Norte 32 Norte 0 -- -- 82
2020-06-23 03:00:00 18.8 21 Norte 32 Norte 0 -- -- 83
2020-06-23 02:00:00 18.7 22 Norte 32 Norte 0 -- -- 82
2020-06-23 01:00:00 19.1 22 Norte 38 Norte 0 -- -- 84
2020-06-23 00:00:00 19.2 23 Norte 40 Norte 0 -- -- 82
2020-06-22 23:00:00 19.4 28 Norte 40 Norte 0 -- -- 84
2020-06-22 22:00:00 19.5 27 Norte 37 Norte 0 -- -- 84
2020-06-22 21:00:00 19.7 24 Norte 39 Norte 0 -- -- 82
2020-06-22 20:00:00 19.9 26 Norte 43 Norte 0 -- -- 80
2020-06-22 19:00:00 20.5 29 Norte 40 Norte 0 -- -- 78
2020-06-22 18:00:00 21 27 Norte 39 Norte 0 -- -- 75
2020-06-22 17:00:00 21.6 24 Norte 40 Norte 0 -- -- 74
2020-06-22 16:00:00 21.9 26 Norte 39 Norte 0 -- -- 72
2020-06-22 15:00:00 22.4 25 Norte 38 Norte 0 -- -- 70
2020-06-22 14:00:00 21.8 24 Norte 38 Norte 0 -- -- 71
2020-06-22 13:00:00 22 24 Norte 39 Norte 0 -- -- 70
2020-06-22 12:00:00 20.7 25 Norte 37 Norte 0 -- -- 77
2020-06-22 11:00:00 20.2 27 Norte 37 Norte 0 -- -- 79
2020-06-22 10:00:00 19.4 25 Norte 39 Nordeste 0 -- -- 83
2020-06-22 09:00:00 18.8 22 Norte 37 Norte 0 -- -- 85
2020-06-22 08:00:00 18.4 20 Norte 32 Norte 0 -- -- 88
2020-06-22 07:00:00 18.4 18 Norte 33 Norte 0 -- -- 87
2020-06-22 06:00:00 18.5 21 Norte 36 Norte 0 -- -- 87
2020-06-22 05:00:00 18.5 20 Norte 32 Norte 0 -- -- 87
2020-06-22 04:00:00 18.5 17 Norte 37 Norte 0 -- -- 88
2020-06-22 03:00:00 18.7 22 Norte 32 Norte 0 -- -- 90
2020-06-22 02:00:00 18.8 23 Norte 37 Nordeste 0 -- -- 89
2020-06-22 01:00:00 18.9 25 Norte 39 Nordeste 0 -- -- 88
2020-06-22 00:00:00 19.1 26 Norte 39 Norte 0 -- -- 87
2020-06-21 23:00:00 19.2 28 Norte 40 Norte 0 -- -- 86
2020-06-21 22:00:00 19.4 27 Norte 38 Norte 0 -- -- 87
2020-06-21 21:00:00 19.6 25 Norte 42 Norte 0 -- -- 85
2020-06-21 20:00:00 19.9 27 Norte 42 Norte 0 -- -- 83
2020-06-21 19:00:00 20.6 30 Norte 44 Norte 0 -- -- 79
2020-06-21 18:00:00 21.1 32 Norte 47 Nordeste 0 -- -- 77
2020-06-21 17:00:00 22.5 32 Norte 49 Nordeste 0 -- -- 71
2020-06-21 16:00:00 22.2 33 Norte 46 Norte 0 -- -- 71
2020-06-21 15:00:00 22.6 31 Norte 50 Nordeste 0 -- -- 70
2020-06-21 14:00:00 23 33 Nordeste 46 Nordeste 0 -- -- 67
2020-06-21 13:00:00 22.8 31 Norte 51 Nordeste 0 -- -- 67
2020-06-21 12:00:00 21.7 32 Norte 53 Nordeste 0 -- -- 71
2020-06-21 11:00:00 21.4 33 Nordeste 58 Norte 0 -- -- 72
2020-06-21 10:00:00 20.5 33 Nordeste 58 Nordeste 0 -- -- 74
2020-06-21 09:00:00 19.8 32 Nordeste 51 Norte 0 -- -- 78
2020-06-21 08:00:00 18.9 30 Norte 50 Nordeste 0 -- -- 80
2020-06-21 07:00:00 18.5 25 Nordeste 40 Norte 0 -- -- 83
2020-06-21 06:00:00 18.4 24 Nordeste 42 Nordeste 0 -- -- 83
2020-06-21 05:00:00 18.6 24 Nordeste 44 Norte 0 -- -- 81
2020-06-21 04:00:00 18.5 26 Nordeste 42 Norte 0 -- -- 81
2020-06-21 03:00:00 18.6 22 Nordeste 38 Nordeste 0 -- -- 84
2020-06-21 02:00:00 18.6 23 Norte 45 Norte 0 -- -- 84
2020-06-21 01:00:00 18.8 24 Norte 42 Nordeste 0 -- -- 81
2020-06-21 00:00:00 18.9 24 Nordeste 44 Nordeste 0 -- -- 79
2020-06-20 23:00:00 19 26 Nordeste 40 Norte 0 -- -- 78
2020-06-20 22:00:00 19.2 25 Norte 39 Norte 0 -- -- 75
2020-06-20 21:00:00 19.6 27 Norte 43 Norte 0 -- -- 74
2020-06-20 20:00:00 20.6 29 Norte 44 Norte 0 -- -- 70
2020-06-20 19:00:00 21.3 29 Norte 45 Nordeste 0 -- -- 64
2020-06-20 18:00:00 22 30 Norte 55 Norte 0 -- -- 67
2020-06-20 17:00:00 21.6 27 Nordeste 43 Norte 0 -- -- 64
2020-06-20 16:00:00 22.6 25 Norte 41 Norte 0 -- -- 61
2020-06-20 15:00:00 22.4 26 Norte 48 Nordeste 0 -- -- 62
2020-06-20 14:00:00 22.7 32 Norte 45 Nordeste 0 -- -- 58
2020-06-20 13:00:00 22.6 28 Norte 46 Norte 0 -- -- 62
2020-06-20 12:00:00 22.2 28 Nordeste 44 Nordeste 0 -- -- 62
2020-06-20 11:00:00 20.5 21 Nordeste 40 Nordeste 0 -- -- 75
2020-06-20 10:00:00 19.9 22 Norte 37 Norte 0 -- -- 76
2020-06-20 09:00:00 19.6 22 Norte 35 Norte 0 -- -- 74
2020-06-20 08:00:00 18.7 22 Norte 32 Norte 0 -- -- 81
2020-06-20 07:00:00 18.7 21 Norte 35 Nordeste 0 -- -- 83
2020-06-20 06:00:00 18.4 22 Nordeste 40 Nordeste 0 -- -- 82
2020-06-20 05:00:00 18.7 21 Nordeste 36 Norte 0 -- -- 80
2020-06-20 04:00:00 18.6 25 Nordeste 41 Norte 0 -- -- 81
2020-06-20 03:00:00 18.5 22 Nordeste 42 Norte 0 -- -- 82
2020-06-20 02:00:00 18.6 24 Nordeste 44 Nordeste 0 -- -- 82
2020-06-20 01:00:00 18.5 30 Nordeste 46 Nordeste 0 -- -- 81
2020-06-20 00:00:00 18.8 28 Nordeste 48 Norte 0 -- -- 82
2020-06-19 23:00:00 19 31 Nordeste 43 Nordeste 0 -- -- 82
2020-06-19 22:00:00 19.3 29 Norte 44 Norte 0 -- -- 81
2020-06-19 21:00:00 19.5 30 Nordeste 48 Nordeste 0 -- -- 81
2020-06-19 20:00:00 20 30 Nordeste 51 Norte 0 -- -- 78
2020-06-19 19:00:00 20.7 33 Nordeste 48 Norte 0 -- -- 74
2020-06-19 18:00:00 21.3 33 Norte 48 Norte 0 -- -- 71
2020-06-19 17:00:00 21.7 33 Norte 53 Norte 0 -- -- 68
2020-06-19 16:00:00 23 33 Norte 48 Norte 0 -- -- 62
2020-06-19 15:00:00 22.4 31 Norte 48 Norte 0 -- -- 68
2020-06-19 14:00:00 22.6 29 Norte 55 Norte 0 -- -- 66
2020-06-19 13:00:00 22.9 35 Norte 53 Norte 0 -- -- 62
2020-06-19 12:00:00 22.3 32 Norte 54 Nordeste 0 -- -- 63
2020-06-19 11:00:00 21.2 34 Norte 52 Nordeste 0 -- -- 67
2020-06-19 10:00:00 20.5 26 Nordeste 50 Nordeste 0 -- -- 69
2020-06-19 09:00:00 20.2 28 Nordeste 44 Norte 0 -- -- 76
2020-06-19 08:00:00 18.9 24 Nordeste 41 Nordeste 0 -- -- 84
2020-06-19 07:00:00 18.8 24 Nordeste 41 Nordeste 0 -- -- 88
2020-06-19 06:00:00 19 20 Nordeste 32 Nordeste 0 -- -- 87
2020-06-19 05:00:00 19 20 Nordeste 41 Nordeste 0 -- -- 85
2020-06-19 04:00:00 19.2 20 Nordeste 35 Norte 0 -- -- 86
2020-06-19 03:00:00 19.1 23 Nordeste 35 Nordeste 0 -- -- 84
2020-06-19 02:00:00 19.3 21 Nordeste 33 Nordeste 0 -- -- 84
2020-06-19 01:00:00 19.4 22 Nordeste 41 Norte 0 -- -- 82
2020-06-19 00:00:00 19.7 25 Nordeste 38 Norte 0 -- -- 82
2020-06-18 23:00:00 19.7 22 Nordeste 35 Norte 0 -- -- 82
2020-06-18 22:00:00 20 20 Norte 33 Norte 0 -- -- 82
2020-06-18 21:00:00 20.3 21 Nordeste 34 Nordeste 0 -- -- 79
2020-06-18 20:00:00 21.1 19 Nordeste 33 Nordeste 0 -- -- 74
2020-06-18 19:00:00 22.6 21 Norte 31 Nordeste 0 -- -- 62
2020-06-18 18:00:00 23.1 21 Nordeste 41 Norte 0 -- -- 65
2020-06-18 17:00:00 23.6 19 Norte 35 Norte 0 -- -- 65
2020-06-18 16:00:00 23.8 19 Norte 31 Norte 0 -- -- 64
2020-06-18 15:00:00 23.5 18 Norte 32 Norte 0 -- -- 66
2020-06-18 14:00:00 23.3 17 Norte 27 Norte 0 -- -- 63
2020-06-18 13:00:00 22.7 16 Norte 27 Norte 0 -- -- 69
2020-06-18 12:00:00 23.1 13 Norte 23 Norte 0 -- -- 66
2020-06-18 11:00:00 21.1 11 Norte 22 Norte 0 -- -- 77
2020-06-18 10:00:00 20.5 13 Norte 23 Noroeste 0 -- -- 83
2020-06-18 09:00:00 19.5 11 Norte 17 Norte 0 -- -- 89
2020-06-18 08:00:00 19 4 Noroeste 16 Noroeste 0 -- -- 91
2020-06-18 07:00:00 18.2 6 Noroeste 25 Noroeste 0.8 -- -- 90
2020-06-18 06:00:00 19.6 9 Noroeste 19 Noroeste 0 -- -- 90
2020-06-18 05:00:00 19.5 14 Noroeste 21 Noroeste 0 -- -- 89
2020-06-18 04:00:00 19.3 13 Noroeste 22 Noroeste 0 -- -- 88
2020-06-18 03:00:00 19.4 13 Noroeste 19 Noroeste 0 -- -- 88
2020-06-18 02:00:00 19.4 14 Noroeste 19 Noroeste 0 -- -- 87
2020-06-18 01:00:00 19.2 11 Noroeste 16 Noroeste 0 -- -- 87
2020-06-18 00:00:00 19.3 9 Noroeste 16 Noroeste 0 -- -- 86
2020-06-17 23:00:00 19.6 13 Noroeste 18 Noroeste 0 -- -- 84
2020-06-17 22:00:00 19.7 8 Noroeste 13 Noroeste 0 -- -- 83
2020-06-17 21:00:00 20.3 10 Norte 15 Norte 0 -- -- 80
2020-06-17 20:00:00 21.5 9 Norte 15 Noroeste 0 -- -- 73
2020-06-17 19:00:00 21.8 10 Norte 21 Noroeste 0 -- -- 71
2020-06-17 18:00:00 22.4 10 Norte 24 Norte 0 -- -- 70
2020-06-17 17:00:00 22.8 14 Norte 26 Norte 0 -- -- 70
2020-06-17 16:00:00 24.1 13 Norte 25 Norte 0 -- -- 64
2020-06-17 15:00:00 25 16 Norte 31 Norte 0 -- -- 59
2020-06-17 14:00:00 24.5 19 Nordeste 29 Nordeste 0 -- -- 62
2020-06-17 13:00:00 23.4 17 Norte 28 Nordeste 0 -- -- 66
2020-06-17 12:00:00 23.6 7 Norte 26 Nordeste 0 -- -- 62
2020-06-17 11:00:00 22.2 13 Norte 20 Nordeste 0 -- -- 71
2020-06-17 10:00:00 20.8 13 Nordeste 22 Nordeste 0 -- -- 78
2020-06-17 09:00:00 19.6 7 Nordeste 25 Norte 0 -- -- 84
2020-06-17 08:00:00 19.2 4 Este 27 Norte 0 -- -- 90
2020-06-17 07:00:00 19.2 20 Norte 28 Norte 0 -- -- 92
2020-06-17 06:00:00 19.3 8 Norte 17 Nordeste 0 -- -- 92
2020-06-17 05:00:00 19.2 8 Nordeste 18 Nordeste 0 -- -- 90
2020-06-17 04:00:00 19.4 8 Norte 14 Nordeste 0 -- -- 91
2020-06-17 03:00:00 19.5 7 Noroeste 17 Noroeste 0 -- -- 91
2020-06-17 02:00:00 19.7 6 Norte 18 Norte 0 -- -- 90
2020-06-17 01:00:00 19.9 9 Norte 16 Noroeste 0 -- -- 90
2020-06-17 00:00:00 20.1 3 Noroeste 11 Este 0 -- -- 86
2020-06-16 23:00:00 20.2 6 Nordeste 10 Este 0 -- -- 81
2020-06-16 22:00:00 20.3 8 Este 10 Este 0 -- -- 78
2020-06-16 21:00:00 20.5 10 Este 26 Nordeste 0 -- -- 83
2020-06-16 20:00:00 20.9 16 Norte 25 Nordeste 0 -- -- 81
2020-06-16 19:00:00 22.1 15 Norte 26 Norte 0 -- -- 74
2020-06-16 18:00:00 22.9 16 Nordeste 32 Nordeste 0 -- -- 70
2020-06-16 17:00:00 23.4 22 Norte 32 Norte 0 -- -- 68
2020-06-16 16:00:00 24.8 21 Norte 31 Norte 0 -- -- 62
2020-06-16 15:00:00 26 16 Norte 24 Norte 0 -- -- 53
2020-06-16 14:00:00 26.9 18 Norte 27 Norte 0 -- -- 50
2020-06-16 13:00:00 27.3 14 Norte 21 Norte 0 -- -- 43
2020-06-16 12:00:00 26.6 10 Norte 18 Nordeste 0 -- -- 46
2020-06-16 11:00:00 24.8 9 Norte 18 Nordeste 0 -- -- 55
2020-06-16 10:00:00 23.2 7 Este 15 Sudeste 0 -- -- 58
2020-06-16 09:00:00 20.7 9 Sudeste 12 Sudeste 0 -- -- 78
2020-06-16 08:00:00 19.6 4 Noroeste 17 Noroeste 0 -- -- 89
2020-06-16 07:00:00 18.9 7 Sur 12 Sudeste 0 -- -- 86
2020-06-16 06:00:00 18.9 8 Sudeste 21 Nordeste 0 -- -- 90
2020-06-16 05:00:00 19.3 5 Este 18 Nordeste 0 -- -- 88
2020-06-16 04:00:00 19.5 10 Nordeste 18 Norte 0 -- -- 86
2020-06-16 03:00:00 19.1 2 Este 25 Nordeste 0 -- -- 87
2020-06-16 02:00:00 19.6 9 Nordeste 15 Norte 0 -- -- 88
2020-06-16 01:00:00 19.6 7 Nordeste 21 Norte 0 -- -- 81
2020-06-16 00:00:00 20.1 15 Norte 22 Norte 0 -- -- 87
2020-06-15 23:00:00 20.5 7 Este 14 Este 0 -- -- 82
2020-06-15 22:00:00 20.4 4 Este 15 Este 0 -- -- 82
2020-06-15 21:00:00 20.8 8 Nordeste 21 Norte 0 -- -- 80
2020-06-15 20:00:00 22 12 Norte 18 Norte 0 -- -- 73
2020-06-15 19:00:00 23.5 13 Norte 19 Norte 0 -- -- 65
2020-06-15 18:00:00 23.7 13 Norte 24 Norte 0 -- -- 60
2020-06-15 17:00:00 25.1 14 Norte 29 Norte 0 -- -- 55
2020-06-15 16:00:00 27.3 20 Norte 27 Norte 0 -- -- 49
2020-06-15 15:00:00 27.8 9 Norte 26 Nordeste 0 -- -- 45
2020-06-15 14:00:00 26.1 14 Nordeste 30 Norte 0 -- -- 51
2020-06-15 13:00:00 26 12 Norte 25 Nordeste 0 -- -- 51
2020-06-15 12:00:00 24.2 13 Nordeste 24 Norte 0 -- -- 59
2020-06-15 11:00:00 23.6 8 Norte 21 Este 0 -- -- 63
2020-06-15 10:00:00 22.2 8 Norte 18 Norte 0 -- -- 71
2020-06-15 09:00:00 21.1 9 Nordeste 19 Este 0 -- -- 71
2020-06-15 08:00:00 19.3 14 Este 28 Este 0 -- -- 88
2020-06-15 07:00:00 19.1 14 Este 26 Sudeste 0 -- -- 87
2020-06-15 06:00:00 19.4 25 Este 39 Este 0 -- -- 84
2020-06-15 05:00:00 19.6 28 Este 49 Este 0 -- -- 79
2020-06-15 04:00:00 20.1 11 Sudeste 33 Este 0 -- -- 79
2020-06-15 03:00:00 20.2 15 Sudeste 22 Sudeste 0 -- -- 68
2020-06-15 02:00:00 19.8 11 Nordeste 19 Norte 0 -- -- 81
2020-06-15 01:00:00 19.4 12 Nordeste 25 Nordeste 0 -- -- 84
2020-06-15 00:00:00 19.5 19 Nordeste 29 Nordeste 0 -- -- 85
2020-06-14 23:00:00 19.7 18 Nordeste 34 Nordeste 0 -- -- 85
2020-06-14 22:00:00 19.8 20 Nordeste 43 Nordeste 0 -- -- 81
2020-06-14 21:00:00 20 21 Nordeste 36 Nordeste 0 -- -- 81
2020-06-14 20:00:00 20.9 24 Nordeste 40 Nordeste 0 -- -- 74
2020-06-14 19:00:00 22.3 18 Nordeste 29 Norte 0 -- -- 66
2020-06-14 18:00:00 23.4 19 Norte 31 Nordeste 0 -- -- 62
2020-06-14 17:00:00 24.1 16 Norte 28 Norte 0 -- -- 61
2020-06-14 16:00:00 24.9 18 Nordeste 35 Nordeste 0 -- -- 59
2020-06-14 15:00:00 24.8 21 Norte 31 Norte 0 -- -- 58
2020-06-14 14:00:00 24.9 18 Nordeste 31 Norte 0 -- -- 56
2020-06-14 13:00:00 24.4 17 Norte 28 Nordeste 0 -- -- 57
2020-06-14 12:00:00 23 12 Nordeste 25 Nordeste 0 -- -- 63
2020-06-14 11:00:00 22.1 14 Nordeste 28 Nordeste 0 -- -- 66
2020-06-14 10:00:00 21.1 13 Nordeste 21 Nordeste 0 -- -- 68
2020-06-14 09:00:00 19.6 11 Nordeste 24 Este 0 -- -- 79
2020-06-14 08:00:00 18.4 12 Nordeste 19 Nordeste 0 -- -- 87
2020-06-14 07:00:00 16.4 5 Nordeste 13 Nordeste 0 -- -- 88
2020-06-14 06:00:00 17.2 6 Nordeste 11 Nordeste 0 -- -- 87
2020-06-14 05:00:00 17.7 6 Nordeste 16 Norte 0 -- -- 85
2020-06-14 04:00:00 17.6 4 Norte 9 Norte 0 -- -- 85
2020-06-14 03:00:00 17.9 6 Norte 14 Nordeste 0 -- -- 82
2020-06-14 02:00:00 18.3 10 Nordeste 16 Nordeste 0 -- -- 80
2020-06-14 01:00:00 18.4 5 Este 12 Norte 0 -- -- 78
2020-06-14 00:00:00 19.1 7 Nordeste 13 Nordeste 0 -- -- 77
2020-06-13 23:00:00 18.8 8 Nordeste 17 Norte 0 -- -- 77
2020-06-13 22:00:00 19.2 8 Norte 19 Nordeste 0 -- -- 76
2020-06-13 21:00:00 19.7 12 Norte 22 Norte 0 -- -- 73
2020-06-13 20:00:00 20.6 13 Norte 23 Noroeste 0 -- -- 64
2020-06-13 19:00:00 21.5 15 Norte 24 Norte 0 -- -- 61
2020-06-13 18:00:00 22.3 17 Norte 27 Norte 0 -- -- 60
2020-06-13 17:00:00 22.7 14 Norte 31 Norte 0 -- -- 58
2020-06-13 16:00:00 22.6 19 Norte 30 Norte 0 -- -- 57
2020-06-13 15:00:00 22.8 16 Norte 29 Norte 0 -- -- 56
2020-06-13 14:00:00 22.5 14 Nordeste 26 Nordeste 0 -- -- 54
2020-06-13 13:00:00 21.8 12 Sur 27 Nordeste 0 -- -- 61
2020-06-13 12:00:00 22.2 12 Nordeste 22 Nordeste 0 -- -- 56
2020-06-13 11:00:00 21 10 Noroeste 24 Norte 0 -- -- 59
2020-06-13 10:00:00 20.7 11 Nordeste 19 Nordeste 0 -- -- 56
2020-06-13 09:00:00 18.7 0 Calma 6 Sur 0 -- -- 70
2020-06-13 08:00:00 16.8 4 Sur 12 Sur 0 -- -- 80
2020-06-13 07:00:00 15 5 Sudeste 8 Sur 0 -- -- 81
2020-06-13 06:00:00 15.4 6 Sur 9 Sur 0 -- -- 82
2020-06-13 05:00:00 15.7 0 Calma 9 Nordeste 0 -- -- 79
2020-06-13 04:00:00 16.7 3 Este 13 Nordeste 0 -- -- 74
2020-06-13 03:00:00 17.6 9 Nordeste 21 Nordeste 0 -- -- 73
2020-06-13 02:00:00 18 9 Nordeste 19 Nordeste 0 -- -- 73
2020-06-13 01:00:00 18.2 11 Nordeste 26 Norte 0 -- -- 73
2020-06-13 00:00:00 18.2 17 Norte 25 Norte 0 -- -- 72
2020-06-12 23:00:00 18.5 14 Norte 28 Norte 0 -- -- 72
2020-06-12 22:00:00 18.7 17 Norte 28 Norte 0 -- -- 70
2020-06-12 21:00:00 19 16 Noroeste 32 Noroeste 0 -- -- 69
2020-06-12 20:00:00 19.5 22 Noroeste 35 Noroeste 0 -- -- 68
2020-06-12 19:00:00 20.5 17 Norte 33 Noroeste 0 -- -- 61
2020-06-12 18:00:00 21.6 18 Noroeste 28 Norte 0 -- -- 59
2020-06-12 17:00:00 21.7 18 Noroeste 29 Noroeste 0 -- -- 61
2020-06-12 16:00:00 22.1 15 Norte 32 Norte 0 -- -- 53
2020-06-12 15:00:00 22.9 17 Noroeste 28 Noroeste 0 -- -- 50
2020-06-12 14:00:00 22.3 14 Noroeste 26 Noroeste 0 -- -- 53
2020-06-12 13:00:00 22.3 16 Noroeste 26 Noroeste 0 -- -- 51
2020-06-12 12:00:00 20.9 13 Norte 27 Noroeste 0 -- -- 59
2020-06-12 11:00:00 20.2 17 Norte 32 Norte 0 -- -- 63
2020-06-12 10:00:00 19.6 16 Norte 29 Noroeste 0 -- -- 69
2020-06-12 09:00:00 19.1 15 Norte 24 Norte 0 -- -- 71
2020-06-12 08:00:00 18.3 11 Noroeste 19 Noroeste 0 -- -- 73
2020-06-12 07:00:00 18.1 11 Norte 20 Norte 0 -- -- 77
2020-06-12 06:00:00 18 10 Norte 17 Noroeste 0 -- -- 82
2020-06-12 05:00:00 18.1 8 Noroeste 12 Noroeste 0 -- -- 77
2020-06-12 04:00:00 17.5 6 Noroeste 10 Noroeste 0 -- -- 78
2020-06-12 03:00:00 17.1 0 Calma 10 Norte 0 -- -- 77
2020-06-12 02:00:00 17.7 8 Norte 12 Norte 0 -- -- 77
2020-06-12 01:00:00 18.2 4 Norte 17 Norte 0 -- -- 79
2020-06-12 00:00:00 18.5 9 Norte 17 Norte 0 -- -- 78
2020-06-11 23:00:00 18.4 12 Norte 22 Norte 0 -- -- 76
2020-06-11 22:00:00 18.5 15 Norte 22 Norte 0 -- -- 75
2020-06-11 21:00:00 19 11 Norte 22 Norte 0 -- -- 69
2020-06-11 20:00:00 19.6 11 Norte 24 Norte 0 -- -- 66
2020-06-11 19:00:00 20.4 13 Norte 25 Noroeste 0 -- -- 61
2020-06-11 18:00:00 20.9 15 Norte 31 Norte 0 -- -- 62
2020-06-11 17:00:00 21.5 19 Norte 33 Norte 0 -- -- 56
2020-06-11 16:00:00 21.5 19 Norte 32 Norte 0 -- -- 56
2020-06-11 15:00:00 22.1 16 Norte 30 Norte 0 -- -- 56
2020-06-11 14:00:00 21.5 21 Norte 33 Norte 0 -- -- 57
2020-06-11 13:00:00 21.8 19 Norte 28 Norte 0 -- -- 56
2020-06-11 12:00:00 21.5 16 Norte 31 Norte 0 -- -- 59
2020-06-11 11:00:00 20.6 18 Nordeste 32 Norte 0 -- -- 62
2020-06-11 10:00:00 19.8 20 Nordeste 33 Nordeste 0 -- -- 63
2020-06-11 09:00:00 19 15 Nordeste 25 Nordeste 0 -- -- 70
2020-06-11 08:00:00 17.8 11 Nordeste 19 Nordeste 0 -- -- 79
2020-06-11 07:00:00 17.3 11 Nordeste 25 Norte 0 -- -- 80
2020-06-11 06:00:00 17.5 14 Nordeste 29 Nordeste 0 -- -- 78
2020-06-11 05:00:00 17.8 15 Nordeste 31 Norte 0 -- -- 78
2020-06-11 04:00:00 17.9 16 Nordeste 27 Norte 0 -- -- 81
2020-06-11 03:00:00 17.9 9 Nordeste 21 Nordeste 0 -- -- 79
2020-06-11 02:00:00 17.8 12 Nordeste 27 Nordeste 0 -- -- 76
2020-06-11 01:00:00 17.8 18 Nordeste 35 Nordeste 0 -- -- 75
2020-06-11 00:00:00 18.2 19 Nordeste 32 Nordeste 0 -- -- 74
2020-06-10 23:00:00 18 19 Nordeste 33 Nordeste 0 -- -- 74
2020-06-10 22:00:00 18.4 20 Nordeste 36 Nordeste 0 -- -- 75
2020-06-10 21:00:00 18.7 21 Nordeste 32 Nordeste 0 -- -- 72
2020-06-10 20:00:00 19.6 22 Nordeste 35 Norte 0 -- -- 68
2020-06-10 19:00:00 20.8 22 Nordeste 42 Nordeste 0 -- -- 64
2020-06-10 18:00:00 21 22 Norte 37 Norte 0 -- -- 62
2020-06-10 17:00:00 21.9 23 Norte 41 Norte 0 -- -- 58
2020-06-10 16:00:00 21.9 23 Norte 35 Norte 0 -- -- 58
2020-06-10 15:00:00 21.6 24 Norte 40 Nordeste 0 -- -- 56
2020-06-10 14:00:00 21.8 24 Norte 43 Norte 0 -- -- 55
2020-06-10 13:00:00 20.9 21 Norte 35 Norte 0 -- -- 63
2020-06-10 12:00:00 20.9 23 Norte 34 Norte 0 -- -- 61
2020-06-10 11:00:00 20.6 22 Norte 36 Norte 0 -- -- 56
2020-06-10 10:00:00 20.4 19 Nordeste 32 Norte 0 -- -- 64
2020-06-10 09:00:00 19.3 22 Nordeste 31 Norte 0 -- -- 68
2020-06-10 08:00:00 18 12 Norte 22 Nordeste 0 -- -- 73
2020-06-10 07:00:00 17.1 10 Nordeste 22 Norte 0 -- -- 75
2020-06-10 06:00:00 17.7 13 Norte 21 Norte 0 -- -- 77
2020-06-10 05:00:00 17.9 13 Norte 22 Norte 0 -- -- 75
2020-06-10 04:00:00 18 14 Norte 30 Norte 0 -- -- 75
2020-06-10 03:00:00 18 19 Nordeste 36 Norte 0 -- -- 75
2020-06-10 02:00:00 18.2 19 Nordeste 37 Nordeste 0 -- -- 72
2020-06-10 01:00:00 18.2 21 Nordeste 35 Norte 0 -- -- 72
2020-06-10 00:00:00 18.1 21 Nordeste 37 Nordeste 0 -- -- 72
2020-06-09 23:00:00 18.4 20 Nordeste 36 Nordeste 0 -- -- 76
2020-06-09 22:00:00 18.3 21 Nordeste 41 Norte 0 -- -- 74
2020-06-09 21:00:00 18.6 24 Nordeste 42 Norte 0 -- -- 71
2020-06-09 20:00:00 19.2 26 Nordeste 42 Norte 0 -- -- 72
2020-06-09 19:00:00 20.3 25 Nordeste 46 Norte 0 -- -- 69
2020-06-09 18:00:00 21.4 27 Nordeste 48 Nordeste 0 -- -- 59
2020-06-09 17:00:00 22.4 23 Norte 43 Norte 0 -- -- 57
2020-06-09 16:00:00 22.8 30 Norte 44 Nordeste 0 -- -- 58
2020-06-09 15:00:00 22.4 23 Nordeste 41 Norte 0 -- -- 61
2020-06-09 14:00:00 23.3 27 Norte 48 Nordeste 0 -- -- 54
2020-06-09 13:00:00 23 25 Nordeste 41 Norte 0 -- -- 54
2020-06-09 12:00:00 22.2 26 Nordeste 39 Nordeste 0 -- -- 60
2020-06-09 11:00:00 21.1 24 Nordeste 42 Nordeste 0 -- -- 71
2020-06-09 10:00:00 21.2 21 Nordeste 43 Este 0 -- -- 65
2020-06-09 09:00:00 20 23 Nordeste 44 Nordeste 0 -- -- 69
2020-06-09 08:00:00 18.6 19 Nordeste 32 Norte 0 -- -- 83
2020-06-09 07:00:00 18.2 20 Nordeste 33 Nordeste 0 -- -- 81
2020-06-09 06:00:00 18.7 19 Nordeste 35 Este 0 -- -- 83
2020-06-09 05:00:00 18.6 16 Nordeste 26 Norte 0 -- -- 86
2020-06-09 04:00:00 18.8 15 Nordeste 26 Nordeste 0 -- -- 84
2020-06-09 03:00:00 18.6 12 Nordeste 25 Nordeste 0 -- -- 85
2020-06-09 02:00:00 18.8 15 Nordeste 33 Nordeste 0 -- -- 83
2020-06-09 01:00:00 18.8 21 Nordeste 31 Nordeste 0 -- -- 83
2020-06-09 00:00:00 19 19 Nordeste 37 Nordeste 0 -- -- 83